sensor_id;sensor_type;location;lat;lon;timestamp;P1;durP1;ratioP1;P2;durP2;ratioP2
32399;SDS011;45045;45.440;9.178;2023-12-29T00:00:40;24.40;;;18.33;;
32399;SDS011;45045;45.440;9.178;2023-12-29T00:03:06;24.13;;;19.20;;
32399;SDS011;45045;45.440;9.178;2023-12-29T00:05:31;42.20;;;32.25;;
32399;SDS011;45045;45.440;9.178;2023-12-29T00:07:57;23.58;;;18.30;;
32399;SDS011;45045;45.440;9.178;2023-12-29T00:10:22;25.48;;;18.60;;
32399;SDS011;45045;45.440;9.178;2023-12-29T00:12:48;24.85;;;19.35;;
32399;SDS011;45045;45.440;9.178;2023-12-29T00:15:17;25.63;;;20.08;;
32399;SDS011;45045;45.440;9.178;2023-12-29T00:17:43;27.55;;;19.08;;
32399;SDS011;45045;45.440;9.178;2023-12-29T00:20:09;28.58;;;19.45;;
32399;SDS011;45045;45.440;9.178;2023-12-29T00:22:35;24.60;;;18.58;;
32399;SDS011;45045;45.440;9.178;2023-12-29T00:25:01;24.23;;;18.50;;
32399;SDS011;45045;45.440;9.178;2023-12-29T00:27:27;30.38;;;20.20;;
32399;SDS011;45045;45.440;9.178;2023-12-29T00:29:53;23.45;;;17.88;;
32399;SDS011;45045;45.440;9.178;2023-12-29T00:32:19;27.05;;;18.63;;
32399;SDS011;45045;45.440;9.178;2023-12-29T00:34:45;23.77;;;18.38;;
32399;SDS011;45045;45.440;9.178;2023-12-29T00:37:11;23.73;;;17.48;;
32399;SDS011;45045;45.440;9.178;2023-12-29T00:39:36;22.08;;;18.10;;
32399;SDS011;45045;45.440;9.178;2023-12-29T00:42:05;24.15;;;19.25;;
32399;SDS011;45045;45.440;9.178;2023-12-29T00:44:32;26.83;;;19.23;;
32399;SDS011;45045;45.440;9.178;2023-12-29T00:46:58;26.20;;;18.92;;
32399;SDS011;45045;45.440;9.178;2023-12-29T00:49:24;29.05;;;19.02;;
32399;SDS011;45045;45.440;9.178;2023-12-29T00:51:50;28.02;;;18.02;;
32399;SDS011;45045;45.440;9.178;2023-12-29T00:54:16;28.33;;;19.35;;
32399;SDS011;45045;45.440;9.178;2023-12-29T00:56:41;25.58;;;17.55;;
32399;SDS011;45045;45.440;9.178;2023-12-29T00:59:07;26.85;;;18.45;;
32399;SDS011;45045;45.440;9.178;2023-12-29T01:01:33;26.30;;;18.58;;
32399;SDS011;45045;45.440;9.178;2023-12-29T01:04:02;25.27;;;18.55;;
32399;SDS011;45045;45.440;9.178;2023-12-29T01:06:28;24.52;;;19.02;;
32399;SDS011;45045;45.440;9.178;2023-12-29T01:08:54;26.60;;;19.20;;
32399;SDS011;45045;45.440;9.178;2023-12-29T01:11:20;26.27;;;18.63;;
32399;SDS011;45045;45.440;9.178;2023-12-29T01:13:45;29.13;;;19.70;;
32399;SDS011;45045;45.440;9.178;2023-12-29T01:16:11;27.75;;;19.60;;
32399;SDS011;45045;45.440;9.178;2023-12-29T01:18:36;23.73;;;18.67;;
32399;SDS011;45045;45.440;9.178;2023-12-29T01:21:02;26.15;;;19.23;;
32399;SDS011;45045;45.440;9.178;2023-12-29T01:23:28;26.70;;;19.23;;
32399;SDS011;45045;45.440;9.178;2023-12-29T01:25:53;25.75;;;19.48;;
32399;SDS011;45045;45.440;9.178;2023-12-29T01:28:19;30.30;;;20.05;;
32399;SDS011;45045;45.440;9.178;2023-12-29T01:30:44;26.00;;;20.08;;
32399;SDS011;45045;45.440;9.178;2023-12-29T01:33:10;27.95;;;20.52;;
32399;SDS011;45045;45.440;9.178;2023-12-29T01:35:36;25.85;;;20.17;;
32399;SDS011;45045;45.440;9.178;2023-12-29T01:38:02;28.23;;;20.15;;
32399;SDS011;45045;45.440;9.178;2023-12-29T01:40:28;24.35;;;19.35;;
32399;SDS011;45045;45.440;9.178;2023-12-29T01:42:53;25.00;;;19.30;;
32399;SDS011;45045;45.440;9.178;2023-12-29T01:45:22;23.30;;;19.65;;
32399;SDS011;45045;45.440;9.178;2023-12-29T01:47:51;28.25;;;19.25;;
32399;SDS011;45045;45.440;9.178;2023-12-29T01:50:18;24.75;;;18.42;;
32399;SDS011;45045;45.440;9.178;2023-12-29T01:52:45;23.95;;;19.02;;
32399;SDS011;45045;45.440;9.178;2023-12-29T01:55:12;26.27;;;18.98;;
32399;SDS011;45045;45.440;9.178;2023-12-29T01:57:43;25.27;;;18.85;;
32399;SDS011;45045;45.440;9.178;2023-12-29T02:00:10;24.45;;;19.35;;
32399;SDS011;45045;45.440;9.178;2023-12-29T02:02:37;23.42;;;18.20;;
32399;SDS011;45045;45.440;9.178;2023-12-29T02:05:02;25.33;;;18.27;;
32399;SDS011;45045;45.440;9.178;2023-12-29T02:07:28;23.60;;;18.83;;
32399;SDS011;45045;45.440;9.178;2023-12-29T02:09:56;23.23;;;18.27;;
32399;SDS011;45045;45.440;9.178;2023-12-29T02:12:24;24.83;;;18.98;;
32399;SDS011;45045;45.440;9.178;2023-12-29T02:14:50;24.90;;;19.42;;
32399;SDS011;45045;45.440;9.178;2023-12-29T02:17:23;25.70;;;19.25;;
32399;SDS011;45045;45.440;9.178;2023-12-29T02:19:52;26.98;;;19.73;;
32399;SDS011;45045;45.440;9.178;2023-12-29T02:22:18;25.75;;;19.42;;
32399;SDS011;45045;45.440;9.178;2023-12-29T02:24:45;24.65;;;18.83;;
32399;SDS011;45045;45.440;9.178;2023-12-29T02:30:00;26.33;;;18.73;;
32399;SDS011;45045;45.440;9.178;2023-12-29T02:32:28;24.85;;;19.15;;
32399;SDS011;45045;45.440;9.178;2023-12-29T02:34:54;24.65;;;18.65;;
32399;SDS011;45045;45.440;9.178;2023-12-29T02:37:22;27.13;;;19.40;;
32399;SDS011;45045;45.440;9.178;2023-12-29T02:39:49;23.05;;;19.10;;
32399;SDS011;45045;45.440;9.178;2023-12-29T02:42:15;28.08;;;19.88;;
32399;SDS011;45045;45.440;9.178;2023-12-29T02:44:41;27.38;;;19.95;;
32399;SDS011;45045;45.440;9.178;2023-12-29T02:47:06;27.73;;;19.85;;
32399;SDS011;45045;45.440;9.178;2023-12-29T02:49:32;27.80;;;19.30;;
32399;SDS011;45045;45.440;9.178;2023-12-29T02:51:58;26.52;;;19.90;;
32399;SDS011;45045;45.440;9.178;2023-12-29T02:54:23;26.10;;;19.40;;
32399;SDS011;45045;45.440;9.178;2023-12-29T02:56:49;27.20;;;20.35;;
32399;SDS011;45045;45.440;9.178;2023-12-29T02:59:14;26.83;;;19.63;;
32399;SDS011;45045;45.440;9.178;2023-12-29T03:01:40;28.00;;;19.05;;
32399;SDS011;45045;45.440;9.178;2023-12-29T03:04:06;24.42;;;19.70;;
32399;SDS011;45045;45.440;9.178;2023-12-29T03:06:32;26.17;;;20.08;;
32399;SDS011;45045;45.440;9.178;2023-12-29T03:08:57;29.90;;;19.90;;
32399;SDS011;45045;45.440;9.178;2023-12-29T03:11:23;26.60;;;20.02;;
32399;SDS011;45045;45.440;9.178;2023-12-29T03:13:48;25.85;;;19.40;;
32399;SDS011;45045;45.440;9.178;2023-12-29T03:16:14;27.40;;;19.63;;
32399;SDS011;45045;45.440;9.178;2023-12-29T03:18:39;28.52;;;20.13;;
32399;SDS011;45045;45.440;9.178;2023-12-29T03:21:06;28.17;;;20.65;;
32399;SDS011;45045;45.440;9.178;2023-12-29T03:23:32;28.02;;;19.20;;
32399;SDS011;45045;45.440;9.178;2023-12-29T03:25:59;29.52;;;19.85;;
32399;SDS011;45045;45.440;9.178;2023-12-29T03:28:24;27.33;;;20.63;;
32399;SDS011;45045;45.440;9.178;2023-12-29T03:30:50;28.13;;;20.48;;
32399;SDS011;45045;45.440;9.178;2023-12-29T03:33:15;28.88;;;20.65;;
32399;SDS011;45045;45.440;9.178;2023-12-29T03:35:41;31.38;;;20.92;;
32399;SDS011;45045;45.440;9.178;2023-12-29T03:38:07;31.25;;;20.52;;
32399;SDS011;45045;45.440;9.178;2023-12-29T03:40:32;25.05;;;20.15;;
32399;SDS011;45045;45.440;9.178;2023-12-29T03:42:58;25.95;;;19.92;;
32399;SDS011;45045;45.440;9.178;2023-12-29T03:45:23;30.08;;;20.95;;
32399;SDS011;45045;45.440;9.178;2023-12-29T03:47:49;28.50;;;20.20;;
32399;SDS011;45045;45.440;9.178;2023-12-29T03:50:15;27.05;;;19.80;;
32399;SDS011;45045;45.440;9.178;2023-12-29T03:52:40;25.52;;;20.40;;
32399;SDS011;45045;45.440;9.178;2023-12-29T03:55:06;29.88;;;20.90;;
32399;SDS011;45045;45.440;9.178;2023-12-29T03:57:32;31.52;;;20.63;;
32399;SDS011;45045;45.440;9.178;2023-12-29T03:59:57;31.05;;;21.65;;
32399;SDS011;45045;45.440;9.178;2023-12-29T04:02:23;24.60;;;19.75;;
32399;SDS011;45045;45.440;9.178;2023-12-29T04:04:49;25.92;;;20.08;;
32399;SDS011;45045;45.440;9.178;2023-12-29T04:07:15;27.15;;;20.77;;
32399;SDS011;45045;45.440;9.178;2023-12-29T04:09:40;27.38;;;20.85;;
32399;SDS011;45045;45.440;9.178;2023-12-29T04:12:06;27.00;;;20.38;;
32399;SDS011;45045;45.440;9.178;2023-12-29T04:14:31;27.25;;;20.08;;
32399;SDS011;45045;45.440;9.178;2023-12-29T04:16:57;27.23;;;21.02;;
32399;SDS011;45045;45.440;9.178;2023-12-29T04:19:24;30.98;;;21.25;;
32399;SDS011;45045;45.440;9.178;2023-12-29T04:21:49;28.80;;;20.95;;
32399;SDS011;45045;45.440;9.178;2023-12-29T04:24:15;32.13;;;21.42;;
32399;SDS011;45045;45.440;9.178;2023-12-29T04:26:40;28.90;;;21.92;;
32399;SDS011;45045;45.440;9.178;2023-12-29T04:29:06;26.75;;;21.50;;
32399;SDS011;45045;45.440;9.178;2023-12-29T04:31:32;27.80;;;21.08;;
32399;SDS011;45045;45.440;9.178;2023-12-29T04:33:57;29.92;;;21.23;;
32399;SDS011;45045;45.440;9.178;2023-12-29T04:36:23;30.55;;;21.67;;
32399;SDS011;45045;45.440;9.178;2023-12-29T04:38:48;30.45;;;22.08;;
32399;SDS011;45045;45.440;9.178;2023-12-29T04:41:14;27.35;;;21.00;;
32399;SDS011;45045;45.440;9.178;2023-12-29T04:43:40;27.75;;;21.05;;
32399;SDS011;45045;45.440;9.178;2023-12-29T04:46:05;30.30;;;22.58;;
32399;SDS011;45045;45.440;9.178;2023-12-29T04:48:31;26.30;;;21.27;;
32399;SDS011;45045;45.440;9.178;2023-12-29T04:50:56;28.75;;;22.33;;
32399;SDS011;45045;45.440;9.178;2023-12-29T04:53:22;29.83;;;21.20;;
32399;SDS011;45045;45.440;9.178;2023-12-29T04:55:48;31.50;;;22.55;;
32399;SDS011;45045;45.440;9.178;2023-12-29T04:58:13;33.15;;;22.35;;
32399;SDS011;45045;45.440;9.178;2023-12-29T05:00:39;28.52;;;21.40;;
32399;SDS011;45045;45.440;9.178;2023-12-29T05:03:04;30.67;;;23.10;;
32399;SDS011;45045;45.440;9.178;2023-12-29T05:05:30;30.35;;;22.35;;
32399;SDS011;45045;45.440;9.178;2023-12-29T05:07:56;28.23;;;21.92;;
32399;SDS011;45045;45.440;9.178;2023-12-29T05:10:21;31.52;;;21.65;;
32399;SDS011;45045;45.440;9.178;2023-12-29T05:12:47;31.08;;;21.55;;
32399;SDS011;45045;45.440;9.178;2023-12-29T05:15:13;29.05;;;21.83;;
32399;SDS011;45045;45.440;9.178;2023-12-29T05:17:38;28.58;;;22.95;;
32399;SDS011;45045;45.440;9.178;2023-12-29T05:20:05;31.92;;;22.45;;
32399;SDS011;45045;45.440;9.178;2023-12-29T05:22:32;32.72;;;23.23;;
32399;SDS011;45045;45.440;9.178;2023-12-29T05:24:58;30.52;;;23.25;;
32399;SDS011;45045;45.440;9.178;2023-12-29T05:27:25;30.92;;;22.30;;
32399;SDS011;45045;45.440;9.178;2023-12-29T05:29:51;28.40;;;21.63;;
32399;SDS011;45045;45.440;9.178;2023-12-29T05:32:17;28.83;;;21.80;;
32399;SDS011;45045;45.440;9.178;2023-12-29T05:34:43;28.58;;;21.42;;
32399;SDS011;45045;45.440;9.178;2023-12-29T05:37:08;29.90;;;21.30;;
32399;SDS011;45045;45.440;9.178;2023-12-29T05:39:34;29.13;;;22.88;;
32399;SDS011;45045;45.440;9.178;2023-12-29T05:41:59;29.30;;;21.73;;
32399;SDS011;45045;45.440;9.178;2023-12-29T05:44:25;27.80;;;20.48;;
32399;SDS011;45045;45.440;9.178;2023-12-29T05:46:51;28.85;;;21.20;;
32399;SDS011;45045;45.440;9.178;2023-12-29T05:49:16;27.48;;;20.40;;
32399;SDS011;45045;45.440;9.178;2023-12-29T05:51:43;27.02;;;19.92;;
32399;SDS011;45045;45.440;9.178;2023-12-29T05:54:09;25.75;;;20.30;;
32399;SDS011;45045;45.440;9.178;2023-12-29T05:56:35;26.80;;;19.30;;
32399;SDS011;45045;45.440;9.178;2023-12-29T05:59:01;28.10;;;19.52;;
32399;SDS011;45045;45.440;9.178;2023-12-29T06:01:26;24.92;;;18.95;;
32399;SDS011;45045;45.440;9.178;2023-12-29T06:03:52;32.35;;;18.88;;
32399;SDS011;45045;45.440;9.178;2023-12-29T06:06:17;27.52;;;17.77;;
32399;SDS011;45045;45.440;9.178;2023-12-29T06:08:43;21.10;;;16.67;;
32399;SDS011;45045;45.440;9.178;2023-12-29T06:11:08;23.40;;;17.20;;
32399;SDS011;45045;45.440;9.178;2023-12-29T06:13:40;23.33;;;18.08;;
32399;SDS011;45045;45.440;9.178;2023-12-29T06:16:05;26.73;;;17.38;;
32399;SDS011;45045;45.440;9.178;2023-12-29T06:18:31;22.52;;;16.27;;
32399;SDS011;45045;45.440;9.178;2023-12-29T06:20:57;22.67;;;16.40;;
32399;SDS011;45045;45.440;9.178;2023-12-29T06:23:22;22.17;;;15.98;;
32399;SDS011;45045;45.440;9.178;2023-12-29T06:25:50;21.55;;;16.30;;
32399;SDS011;45045;45.440;9.178;2023-12-29T06:28:16;24.80;;;16.92;;
32399;SDS011;45045;45.440;9.178;2023-12-29T06:30:41;21.08;;;16.45;;
32399;SDS011;45045;45.440;9.178;2023-12-29T06:33:07;23.75;;;16.15;;
32399;SDS011;45045;45.440;9.178;2023-12-29T06:35:33;21.42;;;15.38;;
32399;SDS011;45045;45.440;9.178;2023-12-29T06:37:59;23.75;;;16.42;;
32399;SDS011;45045;45.440;9.178;2023-12-29T06:40:24;25.63;;;16.17;;
32399;SDS011;45045;45.440;9.178;2023-12-29T06:42:50;23.38;;;17.42;;
32399;SDS011;45045;45.440;9.178;2023-12-29T06:45:15;23.25;;;18.05;;
32399;SDS011;45045;45.440;9.178;2023-12-29T06:47:41;26.70;;;18.77;;
32399;SDS011;45045;45.440;9.178;2023-12-29T06:50:07;25.95;;;19.45;;
32399;SDS011;45045;45.440;9.178;2023-12-29T06:52:37;26.73;;;19.15;;
32399;SDS011;45045;45.440;9.178;2023-12-29T06:55:03;25.05;;;18.80;;
32399;SDS011;45045;45.440;9.178;2023-12-29T06:57:29;23.45;;;18.80;;
32399;SDS011;45045;45.440;9.178;2023-12-29T06:59:54;26.80;;;20.30;;
32399;SDS011;45045;45.440;9.178;2023-12-29T07:02:20;27.05;;;19.58;;
32399;SDS011;45045;45.440;9.178;2023-12-29T07:04:46;26.70;;;19.40;;
32399;SDS011;45045;45.440;9.178;2023-12-29T07:07:11;26.20;;;19.02;;
32399;SDS011;45045;45.440;9.178;2023-12-29T07:09:38;30.65;;;19.38;;
32399;SDS011;45045;45.440;9.178;2023-12-29T07:12:05;31.13;;;20.33;;
32399;SDS011;45045;45.440;9.178;2023-12-29T07:14:31;27.52;;;20.02;;
32399;SDS011;45045;45.440;9.178;2023-12-29T07:16:56;27.05;;;19.70;;
32399;SDS011;45045;45.440;9.178;2023-12-29T07:19:23;26.05;;;20.25;;
32399;SDS011;45045;45.440;9.178;2023-12-29T07:21:48;24.63;;;20.20;;
32399;SDS011;45045;45.440;9.178;2023-12-29T07:24:14;27.98;;;20.90;;
32399;SDS011;45045;45.440;9.178;2023-12-29T07:26:40;29.70;;;20.15;;
32399;SDS011;45045;45.440;9.178;2023-12-29T07:29:05;27.15;;;20.08;;
32399;SDS011;45045;45.440;9.178;2023-12-29T07:31:31;30.45;;;19.85;;
32399;SDS011;45045;45.440;9.178;2023-12-29T07:33:58;25.23;;;20.02;;
32399;SDS011;45045;45.440;9.178;2023-12-29T07:36:24;25.60;;;20.00;;
32399;SDS011;45045;45.440;9.178;2023-12-29T07:38:49;25.17;;;19.42;;
32399;SDS011;45045;45.440;9.178;2023-12-29T07:41:15;25.40;;;19.83;;
32399;SDS011;45045;45.440;9.178;2023-12-29T07:43:41;31.13;;;20.02;;
32399;SDS011;45045;45.440;9.178;2023-12-29T07:46:06;25.65;;;20.25;;
32399;SDS011;45045;45.440;9.178;2023-12-29T07:48:32;26.80;;;18.35;;
32399;SDS011;45045;45.440;9.178;2023-12-29T07:50:58;26.35;;;17.95;;
32399;SDS011;45045;45.440;9.178;2023-12-29T07:53:30;27.02;;;19.25;;
32399;SDS011;45045;45.440;9.178;2023-12-29T07:55:55;22.20;;;17.33;;
32399;SDS011;45045;45.440;9.178;2023-12-29T07:58:21;28.67;;;18.90;;
32399;SDS011;45045;45.440;9.178;2023-12-29T08:00:47;27.50;;;18.70;;
32399;SDS011;45045;45.440;9.178;2023-12-29T08:03:12;24.23;;;17.83;;
32399;SDS011;45045;45.440;9.178;2023-12-29T08:05:38;27.92;;;18.45;;
32399;SDS011;45045;45.440;9.178;2023-12-29T08:08:04;23.60;;;18.38;;
32399;SDS011;45045;45.440;9.178;2023-12-29T08:10:29;27.83;;;19.15;;
32399;SDS011;45045;45.440;9.178;2023-12-29T08:12:56;26.42;;;19.73;;
32399;SDS011;45045;45.440;9.178;2023-12-29T08:15:22;27.42;;;19.83;;
32399;SDS011;45045;45.440;9.178;2023-12-29T08:17:48;29.48;;;20.70;;
32399;SDS011;45045;45.440;9.178;2023-12-29T08:20:13;29.02;;;20.02;;
32399;SDS011;45045;45.440;9.178;2023-12-29T08:22:39;23.95;;;19.73;;
32399;SDS011;45045;45.440;9.178;2023-12-29T08:25:05;32.33;;;19.50;;
32399;SDS011;45045;45.440;9.178;2023-12-29T08:27:30;26.33;;;19.85;;
32399;SDS011;45045;45.440;9.178;2023-12-29T08:29:56;27.35;;;18.83;;
32399;SDS011;45045;45.440;9.178;2023-12-29T08:32:22;30.15;;;19.08;;
32399;SDS011;45045;45.440;9.178;2023-12-29T08:34:47;23.83;;;17.38;;
32399;SDS011;45045;45.440;9.178;2023-12-29T08:37:13;29.38;;;19.27;;
32399;SDS011;45045;45.440;9.178;2023-12-29T08:39:44;27.40;;;19.45;;
32399;SDS011;45045;45.440;9.178;2023-12-29T08:42:11;25.95;;;19.92;;
32399;SDS011;45045;45.440;9.178;2023-12-29T08:44:36;26.65;;;19.13;;
32399;SDS011;45045;45.440;9.178;2023-12-29T08:47:02;24.88;;;18.15;;
32399;SDS011;45045;45.440;9.178;2023-12-29T08:49:28;25.67;;;18.70;;
32399;SDS011;45045;45.440;9.178;2023-12-29T08:51:53;24.70;;;19.10;;
32399;SDS011;45045;45.440;9.178;2023-12-29T08:54:19;28.95;;;20.02;;
32399;SDS011;45045;45.440;9.178;2023-12-29T08:56:45;27.17;;;18.52;;
32399;SDS011;45045;45.440;9.178;2023-12-29T08:59:10;26.10;;;18.40;;
32399;SDS011;45045;45.440;9.178;2023-12-29T09:01:36;28.50;;;18.70;;
32399;SDS011;45045;45.440;9.178;2023-12-29T09:04:01;27.00;;;19.48;;
32399;SDS011;45045;45.440;9.178;2023-12-29T09:06:27;25.33;;;17.85;;
32399;SDS011;45045;45.440;9.178;2023-12-29T09:08:53;27.52;;;18.27;;
32399;SDS011;45045;45.440;9.178;2023-12-29T09:11:18;26.65;;;18.77;;
32399;SDS011;45045;45.440;9.178;2023-12-29T09:13:44;22.35;;;17.83;;
32399;SDS011;45045;45.440;9.178;2023-12-29T09:16:10;27.00;;;17.88;;
32399;SDS011;45045;45.440;9.178;2023-12-29T09:18:35;23.90;;;17.92;;
32399;SDS011;45045;45.440;9.178;2023-12-29T09:21:01;28.10;;;18.50;;
32399;SDS011;45045;45.440;9.178;2023-12-29T09:23:27;24.85;;;18.23;;
32399;SDS011;45045;45.440;9.178;2023-12-29T09:25:52;28.33;;;18.35;;
32399;SDS011;45045;45.440;9.178;2023-12-29T09:28:18;25.42;;;17.52;;
32399;SDS011;45045;45.440;9.178;2023-12-29T09:30:44;27.90;;;17.67;;
32399;SDS011;45045;45.440;9.178;2023-12-29T09:33:09;29.15;;;18.45;;
32399;SDS011;45045;45.440;9.178;2023-12-29T09:35:37;26.58;;;18.33;;
32399;SDS011;45045;45.440;9.178;2023-12-29T09:38:03;25.00;;;18.08;;
32399;SDS011;45045;45.440;9.178;2023-12-29T09:40:29;25.30;;;16.35;;
32399;SDS011;45045;45.440;9.178;2023-12-29T09:42:55;25.52;;;17.52;;
32399;SDS011;45045;45.440;9.178;2023-12-29T09:45:23;26.25;;;18.00;;
32399;SDS011;45045;45.440;9.178;2023-12-29T09:47:50;27.02;;;16.98;;
32399;SDS011;45045;45.440;9.178;2023-12-29T09:50:19;23.02;;;16.30;;
32399;SDS011;45045;45.440;9.178;2023-12-29T09:52:48;22.13;;;17.10;;
32399;SDS011;45045;45.440;9.178;2023-12-29T09:55:24;21.90;;;16.80;;
32399;SDS011;45045;45.440;9.178;2023-12-29T09:57:51;24.15;;;15.82;;
32399;SDS011;45045;45.440;9.178;2023-12-29T10:00:18;20.88;;;16.50;;
32399;SDS011;45045;45.440;9.178;2023-12-29T10:02:45;20.52;;;16.23;;
32399;SDS011;45045;45.440;9.178;2023-12-29T10:05:11;27.05;;;17.65;;
32399;SDS011;45045;45.440;9.178;2023-12-29T10:07:37;28.15;;;17.77;;
32399;SDS011;45045;45.440;9.178;2023-12-29T10:10:04;23.33;;;16.27;;
32399;SDS011;45045;45.440;9.178;2023-12-29T10:12:31;23.33;;;16.38;;
32399;SDS011;45045;45.440;9.178;2023-12-29T10:17:43;25.85;;;17.13;;
32399;SDS011;45045;45.440;9.178;2023-12-29T10:20:30;24.40;;;17.40;;
32399;SDS011;45045;45.440;9.178;2023-12-29T10:23:08;23.10;;;17.00;;
32399;SDS011;45045;45.440;9.178;2023-12-29T10:25:58;23.00;;;16.23;;
32399;SDS011;45045;45.440;9.178;2023-12-29T10:28:23;22.58;;;16.33;;
32399;SDS011;45045;45.440;9.178;2023-12-29T10:30:49;24.48;;;17.27;;
32399;SDS011;45045;45.440;9.178;2023-12-29T10:33:21;24.45;;;16.25;;
32399;SDS011;45045;45.440;9.178;2023-12-29T10:35:57;22.80;;;17.08;;
32399;SDS011;45045;45.440;9.178;2023-12-29T10:38:28;23.73;;;16.45;;
32399;SDS011;45045;45.440;9.178;2023-12-29T10:40:54;22.98;;;16.90;;
32399;SDS011;45045;45.440;9.178;2023-12-29T10:43:35;23.42;;;16.35;;
32399;SDS011;45045;45.440;9.178;2023-12-29T10:46:06;26.55;;;16.60;;
32399;SDS011;45045;45.440;9.178;2023-12-29T10:48:33;21.70;;;16.75;;
32399;SDS011;45045;45.440;9.178;2023-12-29T10:50:59;22.33;;;16.05;;
32399;SDS011;45045;45.440;9.178;2023-12-29T10:53:28;22.75;;;16.27;;
32399;SDS011;45045;45.440;9.178;2023-12-29T10:55:58;23.17;;;16.52;;
32399;SDS011;45045;45.440;9.178;2023-12-29T10:58:24;26.23;;;17.17;;
32399;SDS011;45045;45.440;9.178;2023-12-29T11:00:53;22.65;;;15.52;;
32399;SDS011;45045;45.440;9.178;2023-12-29T11:03:19;22.50;;;15.82;;
32399;SDS011;45045;45.440;9.178;2023-12-29T11:05:45;22.48;;;15.38;;
32399;SDS011;45045;45.440;9.178;2023-12-29T11:08:17;24.17;;;15.13;;
32399;SDS011;45045;45.440;9.178;2023-12-29T11:10:44;24.23;;;16.60;;
32399;SDS011;45045;45.440;9.178;2023-12-29T11:13:11;22.33;;;16.63;;
32399;SDS011;45045;45.440;9.178;2023-12-29T11:15:39;22.73;;;15.73;;
32399;SDS011;45045;45.440;9.178;2023-12-29T11:18:09;18.88;;;15.75;;
32399;SDS011;45045;45.440;9.178;2023-12-29T11:20:40;22.98;;;15.38;;
32399;SDS011;45045;45.440;9.178;2023-12-29T11:23:07;23.35;;;15.82;;
32399;SDS011;45045;45.440;9.178;2023-12-29T11:25:34;21.35;;;16.50;;
32399;SDS011;45045;45.440;9.178;2023-12-29T11:28:01;25.02;;;16.70;;
32399;SDS011;45045;45.440;9.178;2023-12-29T11:30:27;20.75;;;15.90;;
32399;SDS011;45045;45.440;9.178;2023-12-29T11:32:55;23.35;;;16.40;;
32399;SDS011;45045;45.440;9.178;2023-12-29T11:43:32;23.27;;;17.35;;
32399;SDS011;45045;45.440;9.178;2023-12-29T11:45:58;23.38;;;16.33;;
32399;SDS011;45045;45.440;9.178;2023-12-29T11:51:30;24.38;;;15.90;;
32399;SDS011;45045;45.440;9.178;2023-12-29T11:53:56;23.58;;;16.02;;
32399;SDS011;45045;45.440;9.178;2023-12-29T11:56:22;26.13;;;15.80;;
32399;SDS011;45045;45.440;9.178;2023-12-29T11:58:48;20.98;;;16.23;;
32399;SDS011;45045;45.440;9.178;2023-12-29T12:01:14;25.33;;;16.33;;
32399;SDS011;45045;45.440;9.178;2023-12-29T12:03:59;23.48;;;16.05;;
32399;SDS011;45045;45.440;9.178;2023-12-29T12:06:37;20.60;;;15.45;;
32399;SDS011;45045;45.440;9.178;2023-12-29T12:09:16;25.27;;;15.48;;
32399;SDS011;45045;45.440;9.178;2023-12-29T12:11:49;25.73;;;16.75;;
32399;SDS011;45045;45.440;9.178;2023-12-29T12:17:39;24.98;;;17.48;;
32399;SDS011;45045;45.440;9.178;2023-12-29T12:20:08;23.40;;;16.75;;
32399;SDS011;45045;45.440;9.178;2023-12-29T12:22:35;25.75;;;17.02;;
32399;SDS011;45045;45.440;9.178;2023-12-29T12:25:01;25.15;;;17.67;;
32399;SDS011;45045;45.440;9.178;2023-12-29T12:27:28;23.42;;;18.17;;
32399;SDS011;45045;45.440;9.178;2023-12-29T12:29:55;24.13;;;17.90;;
32399;SDS011;45045;45.440;9.178;2023-12-29T12:32:23;27.80;;;18.55;;
32399;SDS011;45045;45.440;9.178;2023-12-29T12:34:50;25.75;;;19.75;;
32399;SDS011;45045;45.440;9.178;2023-12-29T12:37:19;29.30;;;20.45;;
32399;SDS011;45045;45.440;9.178;2023-12-29T12:39:49;25.10;;;19.40;;
32399;SDS011;45045;45.440;9.178;2023-12-29T12:42:16;26.65;;;19.52;;
32399;SDS011;45045;45.440;9.178;2023-12-29T12:44:48;27.77;;;20.40;;
32399;SDS011;45045;45.440;9.178;2023-12-29T12:47:36;30.50;;;19.38;;
32399;SDS011;45045;45.440;9.178;2023-12-29T12:50:10;31.05;;;20.60;;
32399;SDS011;45045;45.440;9.178;2023-12-29T12:52:37;28.40;;;21.95;;
32399;SDS011;45045;45.440;9.178;2023-12-29T12:55:04;29.50;;;21.17;;
32399;SDS011;45045;45.440;9.178;2023-12-29T12:57:31;29.20;;;21.05;;
32399;SDS011;45045;45.440;9.178;2023-12-29T12:59:58;28.08;;;20.40;;
32399;SDS011;45045;45.440;9.178;2023-12-29T13:02:25;26.52;;;19.17;;
32399;SDS011;45045;45.440;9.178;2023-12-29T13:04:52;31.10;;;21.17;;
32399;SDS011;45045;45.440;9.178;2023-12-29T13:07:18;27.58;;;20.17;;
32399;SDS011;45045;45.440;9.178;2023-12-29T13:09:48;29.55;;;21.00;;
32399;SDS011;45045;45.440;9.178;2023-12-29T13:12:16;27.33;;;20.00;;
32399;SDS011;45045;45.440;9.178;2023-12-29T13:14:42;29.60;;;22.40;;
32399;SDS011;45045;45.440;9.178;2023-12-29T13:17:09;33.38;;;24.08;;
32399;SDS011;45045;45.440;9.178;2023-12-29T13:19:36;44.50;;;30.17;;
32399;SDS011;45045;45.440;9.178;2023-12-29T13:22:04;49.88;;;35.70;;
32399;SDS011;45045;45.440;9.178;2023-12-29T13:24:32;52.13;;;35.97;;
32399;SDS011;45045;45.440;9.178;2023-12-29T13:27:01;46.50;;;33.55;;
32399;SDS011;45045;45.440;9.178;2023-12-29T13:29:32;42.40;;;29.25;;
32399;SDS011;45045;45.440;9.178;2023-12-29T13:32:03;35.45;;;25.98;;
32399;SDS011;45045;45.440;9.178;2023-12-29T13:37:50;32.75;;;23.73;;
32399;SDS011;45045;45.440;9.178;2023-12-29T13:40:46;34.75;;;23.23;;
32399;SDS011;45045;45.440;9.178;2023-12-29T13:43:28;32.45;;;23.02;;
32399;SDS011;45045;45.440;9.178;2023-12-29T13:45:57;31.00;;;22.98;;
32399;SDS011;45045;45.440;9.178;2023-12-29T13:48:24;32.88;;;21.73;;
32399;SDS011;45045;45.440;9.178;2023-12-29T13:50:51;27.65;;;20.83;;
32399;SDS011;45045;45.440;9.178;2023-12-29T13:53:20;28.25;;;21.17;;
32399;SDS011;45045;45.440;9.178;2023-12-29T13:55:47;28.58;;;20.80;;
32399;SDS011;45045;45.440;9.178;2023-12-29T13:58:14;28.08;;;20.70;;
32399;SDS011;45045;45.440;9.178;2023-12-29T14:00:42;28.98;;;21.00;;
32399;SDS011;45045;45.440;9.178;2023-12-29T14:03:15;29.75;;;20.98;;
32399;SDS011;45045;45.440;9.178;2023-12-29T14:05:52;25.02;;;20.85;;
32399;SDS011;45045;45.440;9.178;2023-12-29T14:08:25;29.25;;;21.10;;
32399;SDS011;45045;45.440;9.178;2023-12-29T14:10:56;28.58;;;21.50;;
32399;SDS011;45045;45.440;9.178;2023-12-29T14:13:22;29.60;;;21.52;;
32399;SDS011;45045;45.440;9.178;2023-12-29T14:15:48;27.50;;;20.80;;
32399;SDS011;45045;45.440;9.178;2023-12-29T14:23:57;29.73;;;22.38;;
32399;SDS011;45045;45.440;9.178;2023-12-29T14:26:34;31.77;;;23.77;;
32399;SDS011;45045;45.440;9.178;2023-12-29T14:29:04;35.25;;;24.38;;
32399;SDS011;45045;45.440;9.178;2023-12-29T14:31:34;33.50;;;24.50;;
32399;SDS011;45045;45.440;9.178;2023-12-29T14:36:28;28.88;;;23.05;;
32399;SDS011;45045;45.440;9.178;2023-12-29T14:38:54;35.05;;;24.20;;
32399;SDS011;45045;45.440;9.178;2023-12-29T14:41:19;31.60;;;23.52;;
32399;SDS011;45045;45.440;9.178;2023-12-29T14:43:45;34.97;;;23.98;;
32399;SDS011;45045;45.440;9.178;2023-12-29T14:46:11;31.10;;;24.40;;
32399;SDS011;45045;45.440;9.178;2023-12-29T14:48:37;35.13;;;23.65;;
32399;SDS011;45045;45.440;9.178;2023-12-29T14:51:04;32.78;;;23.88;;